Time;durP1;ratioP1;P1;durP2;ratioP2;P2;SDS_P1;SDS_P2;PMS_P1;PMS_P2;Temp;Humidity;BMP_temperature;BMP_pressure;BME280_temperature;BME280_humidity;BME280_pressure;Samples;Min_cycle;Max_cycle;Signal;HPM_P1;HPM_P2
2024/02/13 00:02:04;;;;;;;6.20;4.90;;;;;;;8.25;100.00;97338.30;105900;1265;73929;-91
2024/02/13 00:04:41;;;;;;;5.70;5.10;;;;;;;8.24;100.00;97340.83;105648;1257;61233;-91
2024/02/13 00:07:28;;;;;;;6.10;5.50;;;;;;;8.23;100.00;97341.98;105697;1254;60971;-92
2024/02/13 00:10:03;;;;;;;6.00;5.40;;;;;;;8.23;100.00;97344.02;106033;1254;72844;-94
2024/02/13 00:12:48;;;;;;;6.00;5.40;;;;;;;8.22;100.00;97348.47;108216;1254;75152;-89
2024/02/13 00:15:25;;;;;;;6.00;5.50;;;;;;;8.23;100.00;97347.04;109051;1254;71319;-87
2024/02/13 00:18:15;;;;;;;6.90;5.20;;;;;;;8.23;100.00;97347.93;108350;1254;61065;-91
2024/02/13 00:21:00;;;;;;;;;;;;;;;8.23;100.00;97355.58;105756;1254;61161;-91
2024/02/13 00:23:45;;;;;;;6.20;5.40;;;;;;;8.23;100.00;97353.63;105598;1253;73795;-91
2024/02/13 00:26:36;;;;;;;6.20;5.50;;;;;;;8.23;100.00;97358.43;105802;1253;72535;-90
2024/02/13 00:29:19;;;;;;;8.60;6.30;;;;;;;8.22;100.00;97361.89;105612;1256;73345;-93
2024/02/13 00:32:04;;;;;;;4.20;3.80;;;;;;;8.22;100.00;97364.23;108548;1254;61200;-90
2024/02/13 00:34:49;;;;;;;6.30;5.70;;;;;;;8.22;100.00;97368.50;106113;1259;61251;-92
2024/02/13 00:37:39;;;;;;;4.80;4.40;;;;;;;8.22;100.00;97365.46;105731;1254;72491;-93
2024/02/13 00:40:16;;;;;;;6.70;6.00;;;;;;;8.21;100.00;97372.27;108799;1253;72954;-90
2024/02/13 00:43:07;;;;;;;6.10;5.50;;;;;;;8.20;100.00;97367.39;109121;1257;71214;-90
2024/02/13 00:45:58;;;;;;;6.10;5.30;;;;;;;8.20;100.00;97369.38;106669;1257;63793;-91
2024/02/13 00:49:03;;;;;;;6.20;5.60;;;;;;;8.19;100.00;97372.78;106157;1264;61971;-91
2024/02/13 00:51:58;;;;;;;6.20;5.60;;;;;;;8.20;100.00;97372.73;105630;1262;73918;-92
2024/02/13 00:54:51;;;;;;;7.50;6.60;;;;;;;8.19;100.00;97371.55;105664;1256;75766;-90
2024/02/13 00:57:46;;;;;;;6.80;6.10;;;;;;;8.17;100.00;97371.51;105416;1257;73009;-91
2024/02/13 01:00:15;;;;;;;6.30;5.80;;;;;;;8.18;100.00;97372.39;105306;1256;61681;-91
2024/02/13 01:02:48;;;;;;;7.70;6.30;;;;;;;8.17;100.00;97373.30;105379;1262;61149;-91
2024/02/13 01:05:32;;;;;;;7.20;6.50;;;;;;;8.16;100.00;97375.17;105334;1257;72728;-92
2024/02/13 01:08:05;;;;;;;7.10;6.30;;;;;;;8.15;100.00;97380.40;105665;1254;75229;-90
2024/02/13 01:10:42;;;;;;;7.40;6.40;;;;;;;8.13;100.00;97378.61;105548;1262;72180;-91
2024/02/13 01:13:33;;;;;;;7.40;6.60;;;;;;;8.12;100.00;97378.30;105538;1254;62472;-91
2024/02/13 01:16:40;;;;;;;7.60;6.80;;;;;;;8.13;100.00;97379.89;106368;1254;61121;-88
2024/02/13 01:20:18;;;;;;;7.60;6.90;;;;;;;8.11;100.00;97381.79;107519;1254;73061;-87
2024/02/13 01:24:00;;;;;;;8.00;7.20;;;;;;;8.10;100.00;97382.95;107124;1268;74168;-91
2024/02/13 01:38:57;;;;;;;7.50;6.80;;;;;;;8.68;100.00;97388.17;103684;1284;614582;-90
2024/02/13 01:42:48;;;;;;;;;;;;;;;;;;;;;
2024/02/13 01:46:35;;;;;;;8.80;7.80;;;;;;;8.71;100.00;97394.02;105095;1269;60957;-91
2024/02/13 01:50:29;;;;;;;;;;;;;;;8.61;100.00;97394.60;104827;1275;71856;-91
2024/02/13 01:54:37;;;;;;;;;;;;;;;;;;;;;
2024/02/13 01:58:11;;;;;;;;;;;;;;;;;;;;;
2024/02/13 02:01:32;;;;;;;8.70;7.80;;;;;;;8.36;100.00;97403.80;106998;1259;61651;-90
2024/02/13 02:04:24;;;;;;;10.10;8.30;;;;;;;8.31;100.00;97407.73;105179;1270;61176;-91
2024/02/13 02:07:14;;;;;;;8.80;7.90;;;;;;;8.27;100.00;97407.36;105320;1261;74240;-91
2024/02/13 02:09:58;;;;;;;10.60;8.40;;;;;;;8.23;100.00;97406.94;107199;1259;74687;-88
2024/02/13 02:12:38;;;;;;;10.20;8.50;;;;;;;8.19;100.00;97409.17;106321;1260;71886;-89
2024/02/13 02:15:16;;;;;;;9.10;8.10;;;;;;;8.16;100.00;97410.82;105292;1266;62873;-90
2024/02/13 02:17:54;;;;;;;10.40;9.10;;;;;;;8.13;100.00;97408.04;105246;1266;61184;-91
2024/02/13 02:20:24;;;;;;;9.70;8.50;;;;;;;8.10;100.00;97414.02;108068;1257;70890;-90
2024/02/13 02:22:51;;;;;;;9.30;8.20;;;;;;;8.06;100.00;97417.14;105801;1257;73162;-91
2024/02/13 02:25:20;;;;;;;8.50;7.70;;;;;;;8.04;100.00;97420.65;105712;1263;72207;-88
2024/02/13 02:27:46;;;;;;;9.30;8.00;;;;;;;8.03;100.00;97425.89;108529;1265;62527;-89
2024/02/13 02:30:14;;;;;;;8.40;7.50;;;;;;;8.03;100.00;97428.98;107889;1257;60002;-89
2024/02/13 02:32:41;;;;;;;9.60;8.20;;;;;;;8.00;100.00;97432.16;107663;1257;72754;-88
2024/02/13 02:35:08;;;;;;;9.00;8.10;;;;;;;8.00;100.00;97430.62;107743;1261;74351;-87
2024/02/13 02:37:36;;;;;;;10.00;8.10;;;;;;;7.99;100.00;97434.45;107450;1259;71262;-88
2024/02/13 02:40:04;;;;;;;8.70;7.80;;;;;;;7.97;100.00;97432.04;105889;1261;61124;-89
2024/02/13 02:42:31;;;;;;;8.40;7.20;;;;;;;7.94;100.00;97433.31;105887;1259;61167;-90
2024/02/13 02:44:59;;;;;;;8.80;8.00;;;;;;;7.91;100.00;97435.82;105766;1261;60973;-89
2024/02/13 02:47:25;;;;;;;8.70;7.50;;;;;;;7.90;100.00;97437.55;105619;1259;74746;-89
2024/02/13 02:49:52;;;;;;;9.50;8.30;;;;;;;7.87;100.00;97434.57;105487;1266;73588;-91
2024/02/13 02:52:19;;;;;;;9.20;7.70;;;;;;;7.85;100.00;97439.17;105575;1261;61215;-91
2024/02/13 02:54:46;;;;;;;10.80;7.90;;;;;;;7.82;100.00;97440.80;105531;1261;61585;-91
2024/02/13 02:57:13;;;;;;;9.40;8.40;;;;;;;7.79;100.00;97439.58;105606;1259;71734;-93
2024/02/13 02:59:40;;;;;;;8.80;7.00;;;;;;;7.76;100.00;97448.36;107530;1259;74372;-90
2024/02/13 03:02:07;;;;;;;9.20;8.00;;;;;;;7.74;100.00;97448.14;108761;1259;71597;-89
2024/02/13 03:04:35;;;;;;;11.50;10.00;;;;;;;7.73;100.00;97454.64;107947;1260;60874;-90
2024/02/13 03:07:03;;;;;;;12.80;11.50;;;;;;;7.72;100.00;97455.28;107303;1259;61052;-90
2024/02/13 03:09:34;;;;;;;15.60;14.10;;;;;;;7.71;100.00;97459.83;106852;1260;72344;-89
2024/02/13 03:12:01;;;;;;;18.90;16.20;;;;;;;7.70;100.00;97463.06;107446;1258;76272;-89
2024/02/13 03:14:29;;;;;;;15.30;12.70;;;;;;;7.70;100.00;97466.30;108089;1259;70336;-88
2024/02/13 03:16:56;;;;;;;15.70;13.30;;;;;;;7.70;100.00;97465.75;106393;1264;61149;-91
2024/02/13 03:19:26;;;;;;;18.30;13.50;;;;;;;7.70;100.00;97466.66;105396;1259;61161;-91
2024/02/13 03:21:53;;;;;;;19.20;14.00;;;;;;;7.69;100.00;97475.61;105303;1261;74201;-92
2024/02/13 03:24:20;;;;;;;15.70;13.20;;;;;;;7.69;100.00;97475.79;105307;1267;74311;-90
2024/02/13 03:26:48;;;;;;;12.20;10.90;;;;;;;7.69;100.00;97477.77;105410;1263;72593;-92
2024/02/13 03:29:15;;;;;;;11.90;10.10;;;;;;;7.68;100.00;97479.79;105216;1259;61194;-90
2024/02/13 03:31:44;;;;;;;12.10;10.50;;;;;;;7.67;100.00;97482.02;105211;1260;61154;-90
2024/02/13 03:34:11;;;;;;;13.20;11.50;;;;;;;7.66;100.00;97484.41;105473;1263;73838;-90
2024/02/13 03:36:44;;;;;;;12.20;10.20;;;;;;;7.66;100.00;97489.56;105318;1267;75541;-92
2024/02/13 03:39:17;;;;;;;12.20;11.00;;;;;;;7.65;100.00;97485.54;107818;1259;72769;-89
2024/02/13 03:41:53;;;;;;;10.30;9.30;;;;;;;7.64;100.00;97492.19;108872;1259;61476;-90
2024/02/13 03:44:25;;;;;;;11.30;10.10;;;;;;;7.64;100.00;97494.17;106302;1266;61121;-91
2024/02/13 03:47:17;;;;;;;10.10;9.10;;;;;;;7.63;100.00;97490.11;105298;1260;75699;-91
2024/02/13 03:49:51;;;;;;;9.60;8.70;;;;;;;7.63;100.00;97493.73;105314;1259;74708;-91
2024/02/13 03:52:27;;;;;;;9.60;8.50;;;;;;;7.61;100.00;97497.39;105853;1263;72381;-91
2024/02/13 03:54:57;;;;;;;12.00;8.60;;;;;;;7.60;100.00;97496.73;108604;1259;61412;-89
2024/02/13 03:57:30;;;;;;;10.60;9.50;;;;;;;7.59;100.00;97501.25;109010;1258;59338;-91
2024/02/13 04:00:10;;;;;;;10.60;9.60;;;;;;;7.58;100.00;97503.64;108486;1260;71798;-91
2024/02/13 04:03:03;;;;;;;11.50;10.30;;;;;;;7.58;100.00;97509.67;107568;1262;74402;-91
2024/02/13 04:05:44;;;;;;;12.20;9.30;;;;;;;7.61;100.00;97516.48;108741;1262;72049;-90
2024/02/13 04:08:30;;;;;;;11.50;10.30;;;;;;;7.61;100.00;97515.19;108811;1262;61232;-89
2024/02/13 04:11:16;;;;;;;13.60;10.10;;;;;;;7.62;100.00;97519.27;108149;1262;61237;-90
2024/02/13 04:14:22;;;;;;;10.10;9.00;;;;;;;7.64;100.00;97516.84;108379;1262;72726;-91
2024/02/13 04:16:56;;;;;;;12.00;10.10;;;;;;;7.65;100.00;97519.74;108090;1262;75129;-92
2024/02/13 04:19:32;;;;;;;11.20;9.80;;;;;;;7.67;100.00;97524.08;105098;1264;73429;-91
2024/02/13 04:22:19;;;;;;;11.30;10.30;;;;;;;7.68;100.00;97523.30;105426;1259;61186;-91
2024/02/13 04:24:51;;;;;;;11.70;10.10;;;;;;;7.68;100.00;97531.27;105109;1261;61195;-91
2024/02/13 04:27:45;;;;;;;18.30;11.20;;;;;;;7.68;100.00;97533.41;105283;1266;73289;-90
2024/02/13 04:30:32;;;;;;;13.20;9.90;;;;;;;7.67;100.00;97532.05;105771;1259;74056;-92
2024/02/13 04:33:50;;;;;;;14.30;11.10;;;;;;;7.67;100.00;97536.91;107219;1259;73084;-90
2024/02/13 04:36:26;;;;;;;14.20;10.30;;;;;;;7.67;100.00;97541.89;106139;1260;63221;-92
2024/02/13 04:39:02;;;;;;;11.60;10.10;;;;;;;7.66;100.00;97546.55;105148;1258;61213;-91
2024/02/13 04:42:15;;;;;;;12.80;10.10;;;;;;;7.65;100.00;97546.33;106494;1259;72037;-91
2024/02/13 04:45:23;;;;;;;13.60;11.10;;;;;;;7.63;100.00;97546.98;106857;1258;74389;-89
2024/02/13 04:48:30;;;;;;;12.10;9.60;;;;;;;7.63;100.00;97550.41;108735;1263;73873;-91
2024/02/13 04:52:02;;;;;;;11.50;10.30;;;;;;;7.61;100.00;97556.91;107182;1263;61270;-91
2024/02/13 04:55:42;;;;;;;;;;;;;;;;;;;;;
2024/02/13 04:58:55;;;;;;;11.00;9.50;;;;;;;7.58;100.00;97563.89;104513;1282;72456;-91
2024/02/13 05:02:32;;;;;;;11.50;9.40;;;;;;;7.56;100.00;97567.73;103918;1283;74851;-91
2024/02/13 05:10:05;;;;;;;10.10;8.20;;;;;;;7.47;100.00;97581.77;106720;1291;60445;-92
2024/02/13 05:13:03;;;;;;;11.70;9.50;;;;;;;7.45;100.00;97584.57;105918;1298;59236;-90
2024/02/13 05:15:30;;;;;;;10.80;9.70;;;;;;;7.44;100.00;97584.83;105963;1293;72839;-86
2024/02/13 05:17:57;;;;;;;9.60;8.40;;;;;;;7.42;100.00;97589.73;105351;1295;61006;-86
2024/02/13 05:20:23;;;;;;;10.20;8.90;;;;;;;7.40;100.00;97591.63;106198;1289;58837;-85
2024/02/13 05:22:50;;;;;;;12.00;9.10;;;;;;;7.39;100.00;97596.70;106314;1289;58545;-86
2024/02/13 05:25:17;;;;;;;10.20;8.60;;;;;;;7.40;100.00;97600.95;106499;1286;58773;-85
2024/02/13 05:27:44;;;;;;;12.50;9.50;;;;;;;7.38;100.00;97603.78;106730;1286;72786;-85
2024/02/13 05:30:12;;;;;;;15.30;10.00;;;;;;;7.36;100.00;97601.73;106281;1285;74461;-85
2024/02/13 05:32:38;;;;;;;14.20;10.20;;;;;;;7.36;100.00;97606.05;107003;1276;70462;-85
2024/02/13 05:35:07;;;;;;;12.20;9.40;;;;;;;7.35;100.00;97610.04;105240;1276;61221;-87
2024/02/13 05:37:36;;;;;;;12.00;10.00;;;;;;;7.35;100.00;97612.29;104909;1268;61192;-87
2024/02/13 05:40:04;;;;;;;9.80;8.40;;;;;;;7.34;100.00;97617.73;105208;1265;73353;-86
2024/02/13 05:42:31;;;;;;;10.60;9.00;;;;;;;7.33;100.00;97622.10;105152;1265;75488;-86
2024/02/13 05:44:58;;;;;;;10.20;8.60;;;;;;;7.30;100.00;97630.50;105138;1265;61202;-88
2024/02/13 05:47:31;;;;;;;10.90;8.10;;;;;;;7.27;100.00;97631.58;105384;1264;61229;-86
2024/02/13 05:49:58;;;;;;;9.70;8.30;;;;;;;7.24;100.00;97634.39;105386;1260;61069;-86
2024/02/13 05:52:24;;;;;;;11.70;8.10;;;;;;;7.21;100.00;97639.80;105455;1260;61131;-87
2024/02/13 05:54:51;;;;;;;10.40;8.30;;;;;;;7.18;100.00;97645.66;107596;1261;59730;-85
2024/02/13 05:57:19;;;;;;;10.70;8.10;;;;;;;7.16;100.00;97654.75;105371;1263;73530;-85
2024/02/13 05:59:47;;;;;;;8.70;7.70;;;;;;;7.15;100.00;97654.09;105531;1259;64987;-86
2024/02/13 06:02:14;;;;;;;10.10;9.00;;;;;;;7.14;100.00;97660.00;105900;1260;61172;-87
2024/02/13 06:04:41;;;;;;;8.50;7.60;;;;;;;7.12;100.00;97667.62;105699;1267;71352;-86
2024/02/13 06:07:09;;;;;;;9.20;7.90;;;;;;;7.10;100.00;97671.51;106154;1259;75775;-88
2024/02/13 06:09:38;;;;;;;8.90;8.00;;;;;;;7.07;100.00;97671.70;107091;1262;73152;-87
2024/02/13 06:12:06;;;;;;;11.50;8.70;;;;;;;7.05;100.00;97681.08;105737;1263;61888;-88
2024/02/13 06:14:33;;;;;;;8.50;7.50;;;;;;;7.03;100.00;97687.61;105557;1258;61022;-88
2024/02/13 06:17:00;;;;;;;12.20;8.70;;;;;;;7.02;100.00;97690.92;105550;1259;72864;-90
2024/02/13 06:19:27;;;;;;;11.40;9.40;;;;;;;7.01;100.00;97692.79;105708;1259;73430;-89
2024/02/13 06:21:57;;;;;;;11.00;8.30;;;;;;;6.98;100.00;97699.36;105821;1261;71999;-89
2024/02/13 06:24:55;;;;;;;9.10;8.10;;;;;;;6.95;100.00;97706.84;106099;1257;61955;-88
2024/02/13 06:27:27;;;;;;;9.50;8.10;;;;;;;6.93;100.00;97708.77;106031;1256;61189;-89
2024/02/13 06:29:56;;;;;;;9.10;8.00;;;;;;;6.93;100.00;97710.23;106925;1257;72568;-86
2024/02/13 06:32:24;;;;;;;8.60;7.70;;;;;;;6.93;100.00;97713.80;106500;1254;74408;-86
2024/02/13 06:34:53;;;;;;;9.50;8.00;;;;;;;6.90;100.00;97718.96;106085;1256;71103;-89
2024/02/13 06:37:26;;;;;;;12.50;8.10;;;;;;;6.89;100.00;97718.65;106297;1257;62915;-88
2024/02/13 06:39:54;;;;;;;9.60;8.20;;;;;;;6.88;100.00;97721.92;105714;1256;61046;-88
2024/02/13 06:42:20;;;;;;;9.90;7.60;;;;;;;6.87;100.00;97724.45;105766;1259;71460;-89
2024/02/13 06:44:47;;;;;;;11.40;9.10;;;;;;;6.86;100.00;97728.77;105832;1256;75365;-89
2024/02/13 06:47:17;;;;;;;9.10;8.20;;;;;;;6.85;100.00;97728.52;105644;1256;72406;-89
2024/02/13 06:49:52;;;;;;;8.70;7.80;;;;;;;6.84;100.00;97734.09;105673;1256;61462;-88
2024/02/13 06:52:19;;;;;;;9.90;7.80;;;;;;;6.83;100.00;97740.38;105544;1259;61262;-87
2024/02/13 06:54:46;;;;;;;8.70;7.30;;;;;;;6.81;100.00;97744.95;105515;1261;72403;-88
2024/02/13 06:57:19;;;;;;;8.90;7.30;;;;;;;6.79;100.00;97749.55;105589;1256;74314;-88
2024/02/13 06:59:51;;;;;;;9.30;7.40;;;;;;;6.76;100.00;97746.33;105976;1256;71858;-86
2024/02/13 07:02:22;;;;;;;11.80;8.30;;;;;;;6.73;100.00;97746.71;106028;1256;61165;-89
2024/02/13 07:05:15;;;;;;;;;;;;;;;;;;;;;
2024/02/13 07:11:50;;;;;;;8.60;5.70;;;;;;;6.66;100.00;97761.20;104704;1285;74020;-90
2024/02/13 07:15:22;;;;;;;7.20;5.00;;;;;;;6.66;100.00;97764.98;105440;1283;72501;-90
2024/02/13 07:18:19;;;;;;;8.60;6.10;;;;;;;6.65;100.00;97770.17;107468;1264;61885;-90
2024/02/13 07:21:19;;;;;;;11.10;6.50;;;;;;;6.65;100.00;97779.25;106572;1267;61110;-88
2024/02/13 07:24:00;;;;;;;7.20;5.80;;;;;;;6.64;100.00;97777.94;105433;1270;73189;-87
2024/02/13 07:26:59;;;;;;;7.40;5.70;;;;;;;6.64;100.00;97780.79;104829;1270;73451;-90
2024/02/13 07:29:55;;;;;;;6.80;6.10;;;;;;;6.65;100.00;97785.49;105445;1270;70255;-89
2024/02/13 07:32:27;;;;;;;7.00;6.30;;;;;;;6.65;100.00;97789.57;105307;1270;60787;-89
2024/02/13 07:35:03;;;;;;;6.80;5.90;;;;;;;6.66;100.00;97790.58;104942;1271;61246;-89
2024/02/13 07:37:34;;;;;;;7.30;5.30;;;;;;;6.68;100.00;97797.96;105683;1276;73802;-87
2024/02/13 07:44:05;;;;;;;5.50;4.90;;;;;;;6.72;100.00;97804.11;107599;1264;72367;-94
2024/02/13 07:46:35;;;;;;;5.70;4.40;;;;;;;6.71;100.00;97811.64;105869;1276;62261;-91
2024/02/13 07:53:54;;;;;;;6.00;4.80;;;;;;;6.71;100.00;97818.04;103805;1290;72653;-90
2024/02/13 07:56:28;;;;;;;5.20;4.70;;;;;;;6.71;100.00;97820.36;103708;1291;74607;-89
2024/02/13 08:02:22;;;;;;;6.50;4.60;;;;;;;6.73;100.00;97817.53;102811;1296;62107;-88
2024/02/13 08:05:12;;;;;;;7.00;5.00;;;;;;;6.75;100.00;97820.79;103048;1299;61182;-88
2024/02/13 08:07:53;;;;;;;6.20;4.70;;;;;;;6.78;100.00;97825.79;102421;1299;74751;-87
2024/02/13 08:10:20;;;;;;;6.00;4.30;;;;;;;6.77;100.00;97826.73;102983;1297;74299;-88
2024/02/13 08:13:00;;;;;;;7.90;5.80;;;;;;;6.77;100.00;97829.04;104893;1265;72555;-88
2024/02/13 08:19:16;;;;;;;8.90;6.00;;;;;;;6.79;100.00;97834.75;105846;1268;60954;-89
2024/02/13 08:21:44;;;;;;;6.40;5.20;;;;;;;6.79;100.00;97834.95;105821;1273;72413;-91
2024/02/13 08:27:38;;;;;;;5.60;4.60;;;;;;;6.78;100.00;97841.38;107568;1270;72865;-87
2024/02/13 08:33:06;;;;;;;5.50;4.80;;;;;;;6.77;100.00;97844.84;106383;1274;62849;-90
2024/02/13 08:35:52;;;;;;;6.50;4.80;;;;;;;6.77;100.00;97847.52;104971;1271;72589;-91
2024/02/13 08:38:20;;;;;;;5.70;4.60;;;;;;;6.76;100.00;97848.46;105446;1273;74898;-87
2024/02/13 08:40:47;;;;;;;6.00;4.60;;;;;;;6.76;100.00;97845.11;105208;1270;74075;-89
2024/02/13 08:43:13;;;;;;;9.30;5.00;;;;;;;6.76;100.00;97851.89;106577;1269;60288;-89
2024/02/13 08:45:40;;;;;;;5.50;4.30;;;;;;;6.74;100.00;97851.09;108280;1269;60645;-88
2024/02/13 08:48:07;;;;;;;7.10;4.40;;;;;;;6.74;100.00;97850.26;107946;1270;74045;-91
2024/02/13 08:50:38;;;;;;;4.20;3.80;;;;;;;6.73;100.00;97852.62;108092;1268;72991;-92
2024/02/13 09:01:19;;;;;;;5.90;4.90;;;;;;;6.70;100.00;97869.17;100963;1279;1034601;31
2024/02/13 09:13:56;;;;;;;7.30;5.80;;;;;;;6.74;100.00;97891.86;106519;1288;71567;-91
2024/02/13 09:17:10;;;;;;;7.10;5.30;;;;;;;6.76;100.00;97895.48;106326;1285;59483;-90
2024/02/13 09:20:46;;;;;;;;;;;;;;;;;;;;;
2024/02/13 09:24:05;;;;;;;5.90;4.40;;;;;;;6.81;100.00;97898.90;106172;1284;73210;-90
2024/02/13 09:27:26;;;;;;;4.40;4.00;;;;;;;6.81;100.00;97907.44;106272;1284;71321;-91
2024/02/13 09:31:40;;;;;;;;;;;;;;;;;;;;;
2024/02/13 09:36:20;;;;;;;6.50;4.80;;;;;;;6.80;100.00;97911.75;104989;1300;59096;-91
2024/02/13 09:39:19;;;;;;;5.10;3.90;;;;;;;6.82;100.00;97911.81;106171;1285;60176;-90
2024/02/13 09:47:22;;;;;;;;;;;;;;;;;;;;;
2024/02/13 09:56:59;;;;;;;6.90;4.20;;;;;;;6.87;100.00;97917.20;105675;1282;61209;-87
2024/02/13 09:59:41;;;;;;;6.20;5.50;;;;;;;6.86;100.00;97922.06;104463;1284;73980;-91
2024/02/13 10:02:43;;;;;;;8.30;5.80;;;;;;;6.85;100.00;97923.70;105056;1286;74469;-89
2024/02/13 10:05:58;;;;;;;7.30;5.80;;;;;;;6.86;100.00;97922.05;105524;1283;73557;-89
2024/02/13 10:09:44;;;;;;;;;;;;;;;;;;;;;
2024/02/13 10:13:11;;;;;;;5.10;4.60;;;;;;;6.90;100.00;97925.42;104232;1304;60440;-91
2024/02/13 10:16:20;;;;;;;7.60;5.10;;;;;;;6.93;100.00;97927.73;104059;1303;73395;-91
2024/02/13 10:19:27;;;;;;;10.50;4.70;;;;;;;6.98;100.00;97926.52;103931;1300;74521;-88
2024/02/13 10:22:11;;;;;;;6.70;4.80;;;;;;;7.01;100.00;97921.66;104444;1302;73519;-90
2024/02/13 10:29:39;;;;;;;5.80;3.80;;;;;;;7.12;100.00;97921.91;103218;1301;61175;-92
2024/02/13 10:32:44;;;;;;;5.50;4.30;;;;;;;7.19;100.00;97928.59;101922;1314;73559;-92
2024/02/13 10:35:40;;;;;;;6.00;5.30;;;;;;;7.25;100.00;97925.85;103571;1289;600862;-90
2024/02/13 10:38:10;;;;;;;5.10;4.00;;;;;;;7.26;100.00;97923.33;106185;1267;61302;-91
2024/02/13 10:48:16;;;;;;;6.00;3.20;;;;;;;7.28;100.00;97921.79;105994;1281;73647;-89
2024/02/13 10:50:50;;;;;;;6.40;3.60;;;;;;;7.29;99.96;97923.71;107580;1268;72010;-89
2024/02/13 10:53:21;;;;;;;4.30;2.90;;;;;;;7.30;100.00;97921.99;107109;1274;61608;-90
2024/02/13 10:59:14;;;;;;;9.00;5.60;;;;;;;7.41;100.00;97927.70;107318;1276;71528;-87
2024/02/13 11:01:42;;;;;;;4.20;3.20;;;;;;;7.45;99.66;97928.02;107216;1276;73070;-89
2024/02/13 11:04:09;;;;;;;3.40;2.60;;;;;;;7.47;98.46;97921.63;105432;1277;71527;-90
2024/02/13 11:06:37;;;;;;;4.70;3.10;;;;;;;7.46;96.56;97927.95;105445;1278;61061;-89
2024/02/13 11:09:12;;;;;;;3.50;3.00;;;;;;;7.43;96.34;97924.71;105613;1277;61156;-91
2024/02/13 11:11:44;;;;;;;3.60;3.20;;;;;;;7.42;95.47;97927.83;105553;1280;73112;-90
2024/02/13 11:14:23;;;;;;;3.20;2.80;;;;;;;7.41;95.01;97927.73;105118;1274;76025;-86
2024/02/13 11:17:00;;;;;;;6.10;3.90;;;;;;;7.40;95.50;97929.92;105148;1279;72174;-88
2024/02/13 11:19:38;;;;;;;5.20;3.40;;;;;;;7.40;96.15;97929.00;106925;1274;61832;-89
2024/02/13 11:22:18;;;;;;;3.50;3.20;;;;;;;7.41;96.21;97924.70;105358;1275;63254;-91
2024/02/13 11:24:53;;;;;;;5.00;3.10;;;;;;;7.44;96.67;97928.58;106178;1274;73137;-90
2024/02/13 11:27:26;;;;;;;4.00;2.90;;;;;;;7.48;95.94;97933.70;107451;1276;73050;-91
2024/02/13 11:29:59;;;;;;;4.30;3.30;;;;;;;7.50;95.87;97936.19;107696;1274;71465;-89
2024/02/13 11:32:38;;;;;;;5.60;4.00;;;;;;;7.52;95.48;97936.10;107670;1274;59870;-88
2024/02/13 11:35:15;;;;;;;;;;;;;;;7.54;95.07;97935.08;107239;1274;60174;-90
2024/02/13 11:37:46;;;;;;;5.30;3.20;;;;;;;7.53;94.83;97939.95;108074;1269;72252;-89
2024/02/13 11:40:15;;;;;;;4.10;3.70;;;;;;;7.52;94.71;97939.30;106351;1274;74471;-87
2024/02/13 11:42:44;;;;;;;4.40;3.60;;;;;;;7.53;94.69;97942.66;106403;1266;72727;-88
2024/02/13 11:45:22;;;;;;;8.50;4.90;;;;;;;7.52;94.30;97947.70;106507;1268;60468;-91
2024/02/13 11:47:56;;;;;;;4.90;3.70;;;;;;;7.51;94.26;97944.02;106259;1266;61205;-88
2024/02/13 11:51:28;;;;;;;5.80;3.60;;;;;;;7.46;94.75;97948.41;106386;1266;70874;-89
2024/02/13 11:54:11;;;;;;;6.00;3.80;;;;;;;7.43;95.31;97946.11;106271;1266;74478;-90
2024/02/13 11:56:46;;;;;;;5.70;3.80;;;;;;;7.40;95.48;97947.00;106477;1266;71967;-90
2024/02/13 11:59:22;;;;;;;4.30;3.30;;;;;;;7.39;95.74;97953.66;106852;1265;59769;-90
2024/02/13 12:06:25;;;;;;;4.80;2.90;;;;;;;7.34;96.21;97952.58;83261;1292;71495;-93
2024/02/13 12:14:09;;;;;;;8.40;5.80;;;;;;;7.26;96.46;97952.89;107989;1267;72641;-91
2024/02/13 12:16:54;;;;;;;6.90;3.80;;;;;;;7.24;96.71;97957.30;107747;1273;59647;-90
2024/02/13 12:29:23;;;;;;;4.60;4.10;;;;;;;7.16;97.95;97962.41;94842;1273;69859;-88
2024/02/13 12:32:58;;;;;;;6.80;3.70;;;;;;;7.16;98.47;97964.88;107121;1279;72539;-88
2024/02/13 12:36:45;;;;;;;4.90;4.00;;;;;;;7.17;97.65;97973.21;104636;1290;61090;-91
2024/02/13 12:39:46;;;;;;;4.80;3.40;;;;;;;7.15;97.51;97974.91;103860;1289;61189;-93
2024/02/13 12:43:00;;;;;;;4.60;3.90;;;;;;;7.13;97.72;97970.64;106580;1268;74093;-91
2024/02/13 12:46:30;;;;;;;;;;;;;;;;;;;;;
2024/02/13 13:02:38;;;;;;;5.60;4.00;;;;;;;7.09;98.09;97979.76;95878;1262;73638;31
2024/02/13 13:05:33;;;;;;;4.90;4.10;;;;;;;7.05;98.53;97983.21;108269;1266;73707;-90
2024/02/13 13:08:14;;;;;;;4.20;3.80;;;;;;;7.02;98.60;97987.49;108145;1271;75812;-90
2024/02/13 13:10:43;;;;;;;6.40;4.60;;;;;;;7.01;98.91;97993.05;107771;1273;62589;-90
2024/02/13 13:13:17;;;;;;;6.00;4.40;;;;;;;7.02;99.38;97992.11;107799;1272;60170;-90
2024/02/13 13:21:13;;;;;;;10.30;4.60;;;;;;;7.01;99.27;98001.79;107549;1280;73789;-88
2024/02/13 13:23:46;;;;;;;5.80;4.70;;;;;;;7.01;99.63;97998.21;107250;1280;71790;-89
2024/02/13 13:26:19;;;;;;;6.40;5.10;;;;;;;7.02;99.61;97997.98;107373;1278;58891;-88
2024/02/13 13:28:49;;;;;;;4.80;4.20;;;;;;;7.03;99.44;98006.85;107408;1280;61192;-87
2024/02/13 13:31:23;;;;;;;6.20;4.80;;;;;;;7.03;99.17;98016.27;107387;1279;73125;-89
2024/02/13 13:33:53;;;;;;;5.50;5.00;;;;;;;7.03;98.67;98015.04;107082;1279;73778;-89
2024/02/13 13:36:32;;;;;;;5.80;4.40;;;;;;;7.02;99.08;98015.97;107195;1278;72616;-90
2024/02/13 13:39:20;;;;;;;6.00;4.20;;;;;;;7.02;99.05;98017.70;107209;1280;60166;-89
2024/02/13 13:42:07;;;;;;;5.90;5.30;;;;;;;7.01;99.50;98022.98;107038;1280;59053;-89
2024/02/13 13:44:40;;;;;;;5.80;5.20;;;;;;;7.00;99.24;98030.54;107466;1279;72669;-90
2024/02/13 13:47:23;;;;;;;4.90;4.20;;;;;;;7.01;99.41;98026.73;107534;1279;73688;-89
2024/02/13 13:50:21;;;;;;;4.20;3.00;;;;;;;7.02;98.61;98032.91;107234;1279;71363;-89
2024/02/13 13:53:05;;;;;;;;;;;;;;;7.01;98.00;98040.38;106731;1283;60571;-89
2024/02/13 13:56:07;;;;;;;4.30;3.60;;;;;;;7.00;97.70;98038.73;107007;1278;60270;-91
2024/02/13 13:59:32;;;;;;;4.10;3.50;;;;;;;6.99;97.82;98044.46;107438;1279;71685;-89
2024/02/13 14:02:04;;;;;;;5.10;4.30;;;;;;;6.99;98.36;98045.31;107276;1278;74348;-90
2024/02/13 14:04:46;;;;;;;5.40;4.60;;;;;;;7.01;98.43;98046.27;107206;1280;73815;-88
2024/02/13 14:07:19;;;;;;;6.10;4.80;;;;;;;7.02;98.65;98053.17;107204;1278;61508;-88
2024/02/13 14:09:56;;;;;;;8.00;5.30;;;;;;;7.02;98.72;98050.71;107356;1277;60907;-90
2024/02/13 14:12:26;;;;;;;4.40;4.00;;;;;;;7.01;99.20;98051.09;107167;1279;74441;-90
2024/02/13 14:15:41;;;;;;;;;;;;;;;;;;;;;
2024/02/13 14:21:50;;;;;;;7.90;5.20;;;;;;;6.99;99.19;98060.30;107344;1279;62414;-90
2024/02/13 14:24:18;;;;;;;9.20;5.50;;;;;;;6.98;99.43;98067.84;107568;1277;61080;-90
2024/02/13 14:26:46;;;;;;;5.50;4.00;;;;;;;7.00;99.59;98064.89;107556;1277;71837;-89
2024/02/13 14:29:15;;;;;;;8.10;5.30;;;;;;;7.01;99.75;98072.48;107602;1271;74742;-87
2024/02/13 14:31:43;;;;;;;4.90;4.50;;;;;;;7.02;99.84;98068.52;107981;1271;71266;-88
2024/02/13 14:34:11;;;;;;;5.30;4.70;;;;;;;7.01;99.89;98069.63;108158;1271;60398;-87
2024/02/13 14:36:38;;;;;;;5.70;4.40;;;;;;;6.98;99.80;98077.43;107942;1270;61211;-88
2024/02/13 14:39:16;;;;;;;5.10;4.30;;;;;;;6.95;99.71;98077.66;107907;1270;73287;-87
2024/02/13 14:41:49;;;;;;;5.10;4.50;;;;;;;6.93;99.86;98079.91;108381;1271;74297;-88
2024/02/13 14:44:18;;;;;;;6.20;4.80;;;;;;;6.91;100.00;98086.77;108053;1270;75133;-88
2024/02/13 14:46:45;;;;;;;10.10;5.70;;;;;;;6.90;100.00;98090.61;107973;1271;61284;-86
2024/02/13 14:49:15;;;;;;;5.90;5.30;;;;;;;6.89;100.00;98094.89;108128;1270;61259;-86
2024/02/13 14:51:51;;;;;;;12.30;6.00;;;;;;;6.87;100.00;98097.98;108149;1271;72181;-88
2024/02/13 14:54:20;;;;;;;8.30;5.90;;;;;;;6.87;100.00;98107.47;107794;1271;73296;-88
2024/02/13 14:56:49;;;;;;;6.20;4.60;;;;;;;6.85;100.00;98105.25;108510;1271;73664;-87
2024/02/13 14:59:18;;;;;;;6.00;5.40;;;;;;;6.82;100.00;98106.32;108485;1271;59293;-87
2024/02/13 15:01:46;;;;;;;6.20;5.00;;;;;;;6.78;100.00;98108.16;108628;1271;58262;-86
2024/02/13 15:04:14;;;;;;;6.80;5.80;;;;;;;6.73;100.00;98115.20;108502;1271;74109;-87